Grass Lake, MI (49240)

07:30 AM EDT del 27 Luglio 2016 (GMT -0400)
Stull Rd Grup | | Change Station

Alt. 997 ft 42.29 °N, 84.26 °W | Updated 4 minutes ago

Clear
Sereno
64.4 °F
Sembra 64.4 °F
N
0.0
Vento Variabile Vento da ESE

Oggi
Massima -- | Minima -- °F
--% Possibilità di precip.
Ieri
Massima -- | Minima -- °F
Precip. -- in
Pressione 30.03 in
Visibilità 3.0 miglia
Nuvole Sereno
Punto di rugiada 61 °F
Umidità 90%
Piovosità 0.00 in
Spessore del manto nevoso Non disponibile.
6:25 AM 9:00 PM
Ultimo quarto, 44% visible
METAR KJXN 271056Z 00000KT 3SM BR CLR 17/17 A3005 RMK AO2 SLP169 T01720167
Pressione 30.03 in
Visibilità 3.0 miglia
Nuvole Sereno
Punto di rugiada 61 °F
Umidità 90%
Piovosità 0.00 in
Spessore del manto nevoso Non disponibile.
6:25 AM 9:00 PM
Ultimo quarto, 44% visible
METAR KJXN 271056Z 00000KT 3SM BR CLR 17/17 A3005 RMK AO2 SLP169 T01720167

10-Day Weather Forecast

Almanac

Astronomia

Jul. 27, 2016 Alba Tramonto
Ora attuale
Crepuscolo civile
Crepuscolo nautico
Crepuscolo astronomico
Luna
Estensione della luce visibile
Lunghezza del giorno
Tomorrow will be .
, % of the Moon is Illuminated

Gli estremi di oggi

State Highs State Lows

Community

WunderPhotos

Upload Photos

1,927,826 foto caricate!

WunderBlog® & News

Nearby

Qualità dell'aria

  Qualità dell'aria Indice AQ Inquinante
Not available.

Profondità neve

Stazione Profondità Altitudine

Attività sismica

Città  Distanza Mag. Data & Ora
Minimo Magnitudo Mostrato è 2.5.

Temperature delle acque costiere

Località Temperatura

Stations

Stazioni meteo nelle vicinanze

Ubicazione della stazione Temp. Raffreddamento del vento Punto di rugiada Umidità Vento Precip. Alt. Aggiornato Tipo
                   

Watches & Warnings

There are currently no watches in effect.